Airfield :
LOGIN :

Register | Disclaimer

   EN    FR    IT 

 










Legend :    VFR   Marginal VFR   IFR   Intensive IFR   Very Intensive IFR
Visi :
Ceiling :
>= 8 km
>= 3000ft
5 to 8 km
1000 to 3000 ft
1500m to 5 km
500 to 1000 ft
800 to 1500m
200 to 500 ft
< 800m
< 200 ft
Symbols :   Thunderstorms  Fog  Heavy snow  Heavy precipitations  Wind > 20 kt
SIGMETs :     Misc.  Thunderstorms  Icing  Turbulence  Mountain Waves  Volcanic Ashes






- Airport Elevation : 776 ft
- IATA code : RMS


ETAR - Ramstein Air Base

CURRENT METAR :
  • 241356Z 27003KT 8000 BR SCT009 02/02 A3019 RMK AO2A SLP240 T00220016 FZRANO $

EXPIRED METARs :
  • 241256Z 30003KT 6000 BR OVC008 02/01 A3021 RMK AO2A CIG 007 RWY08 SLP246 T00170014 FZRANO $
  • 241226Z 00000KT 6000 BR OVC008 01/01 A3021 RMK AO2A CIG 007 RWY08 SLP247 FZRANO $
  • 241156Z 00000KT 5000 BR OVC007 01/01 A3022 RMK AO2A SLP251 T00110010 10011 21007 58010 FZRANO $

TAF AMD TAF ETAR
Valid from the 24 at 13:00 until the 25 at 16:00 UTC


241356Z 2413/2516 VRB06KT 6000 BR BKN009 QNH3019INS
BECMG 2414/2415 VRB03KT 9999 NSW SCT010 QNH3018INS
BECMG 2420/2421 VRB06KT 8000 BR SCT010 BKN020 QNH3016INS
BECMG 2502/2503 VRB03KT 0400 FZFG VV002 620002 QNH3016INS
BECMG 2506/2507 VRB03KT 0400 FG VV002 QNH3013INS
BECMG 2514/2515 VRB03KT 2400 BR BKN005 QNH3012INS TX03/2415Z TN00/2504Z



MET'MAP, your aeronautical weather chart ! - Copyright ORBIFLY December 2007 - Disclaimer

ORBIFLY MET'MAP TEAM :

Programming & Development : Alexandra Zaïnal
Concept & original design : Baudouin d'Aumeries
Assistance for programming : Marc-Olivier Méhu
Technical & hardware support : Manuel Goepfert

Contact : metmap@orbifly.com




SOURCES & CREDITS :

   NOAA